Time;durP1;ratioP1;P1;durP2;ratioP2;P2;SDS_P1;SDS_P2;PMS_P1;PMS_P2;Temp;Humidity;BMP_temperature;BMP_pressure;BME280_temperature;BME280_humidity;BME280_pressure;Samples;Min_cycle;Max_cycle;Signal;HPM_P1;HPM_P2
2022/03/10 00:02:05;;;;;;;12.13;9.90;;;;;;;;;;5072195;28;20766;-58
2022/03/10 00:04:31;;;;;;;12.00;10.27;;;;;;;;;;5072416;28;20539;-56
2022/03/10 00:06:58;;;;;;;12.33;8.90;;;;;;;;;;5071849;28;20484;-56
2022/03/10 00:09:24;;;;;;;11.73;9.70;;;;;;;;;;5072105;28;20434;-57
2022/03/10 00:11:50;;;;;;;10.73;8.97;;;;;;;;;;5072121;28;20437;-57
2022/03/10 00:14:16;;;;;;;11.23;9.30;;;;;;;;;;5072012;28;20646;-57
2022/03/10 00:16:42;;;;;;;10.17;8.87;;;;;;;;;;5072243;28;20438;-57
2022/03/10 00:19:12;;;;;;;13.67;9.67;;;;;;;;;;5072109;28;20191;-57
2022/03/10 00:21:38;;;;;;;11.90;9.50;;;;;;;;;;5072031;28;20929;-57
2022/03/10 00:24:04;;;;;;;10.03;8.97;;;;;;;;;;5069827;28;20533;-57
2022/03/10 00:26:30;;;;;;;10.03;8.37;;;;;;;;;;5071686;28;20489;-60
2022/03/10 00:28:56;;;;;;;11.93;10.10;;;;;;;;;;5072014;28;20430;-59
2022/03/10 00:31:22;;;;;;;13.27;9.57;;;;;;;;;;5071896;28;20580;-58
2022/03/10 00:33:48;;;;;;;14.07;10.43;;;;;;;;;;5072063;28;20255;-59
2022/03/10 00:36:17;;;;;;;11.17;9.53;;;;;;;;;;5071863;28;20192;-58
2022/03/10 00:38:43;;;;;;;14.40;10.37;;;;;;;;;;5072009;28;20438;-59
2022/03/10 00:41:09;;;;;;;11.77;9.97;;;;;;;;;;5071973;28;20511;-58
2022/03/10 00:43:36;;;;;;;11.73;9.43;;;;;;;;;;5072040;28;20196;-58
2022/03/10 00:46:02;;;;;;;10.63;9.53;;;;;;;;;;5071848;28;20985;-58
2022/03/10 00:48:28;;;;;;;14.03;9.13;;;;;;;;;;5072086;28;20441;-59
2022/03/10 00:50:54;;;;;;;11.83;9.70;;;;;;;;;;5071886;28;20848;-58
2022/03/10 00:53:22;;;;;;;11.23;8.87;;;;;;;;;;5071732;28;20437;-58
2022/03/10 00:55:48;;;;;;;11.40;8.53;;;;;;;;;;5071862;28;20469;-59
2022/03/10 00:58:14;;;;;;;13.17;9.00;;;;;;;;;;5071895;28;20918;-58
2022/03/10 01:00:40;;;;;;;11.83;9.87;;;;;;;;;;5071464;28;20195;-58
2022/03/10 01:03:06;;;;;;;11.03;9.10;;;;;;;;;;5071714;28;20219;-59
2022/03/10 01:05:32;;;;;;;9.90;8.60;;;;;;;;;;5071725;28;21037;-58
2022/03/10 01:07:58;;;;;;;10.83;9.73;;;;;;;;;;5071601;28;20464;-58
2022/03/10 01:10:25;;;;;;;10.97;9.37;;;;;;;;;;5071540;28;20211;-58
2022/03/10 01:12:51;;;;;;;13.00;9.10;;;;;;;;;;5071600;28;20936;-58
2022/03/10 01:15:18;;;;;;;11.97;8.80;;;;;;;;;;5071499;28;20441;-58
2022/03/10 01:17:44;;;;;;;10.43;9.10;;;;;;;;;;5071698;28;20441;-58
2022/03/10 01:20:11;;;;;;;12.97;9.07;;;;;;;;;;5071537;28;20446;-58
2022/03/10 01:22:37;;;;;;;12.97;8.93;;;;;;;;;;5072799;28;20850;-58
2022/03/10 01:25:03;;;;;;;10.07;8.13;;;;;;;;;;5074968;28;20463;-59
2022/03/10 01:27:31;;;;;;;11.23;8.43;;;;;;;;;;5075274;28;20801;-58
2022/03/10 01:29:57;;;;;;;10.43;9.33;;;;;;;;;;5075221;28;20544;-58
2022/03/10 01:32:23;;;;;;;12.10;8.60;;;;;;;;;;5075073;28;20422;-58
2022/03/10 01:34:49;;;;;;;11.47;9.20;;;;;;;;;;5075229;28;20433;-58
2022/03/10 01:37:15;;;;;;;10.27;8.97;;;;;;;;;;5074942;28;20956;-58
2022/03/10 01:39:41;;;;;;;12.27;9.33;;;;;;;;;;5075000;28;20196;-58
2022/03/10 01:42:07;;;;;;;11.53;9.30;;;;;;;;;;5074982;28;20574;-58
2022/03/10 01:44:35;;;;;;;10.30;8.83;;;;;;;;;;5075079;28;20245;-58
2022/03/10 01:47:01;;;;;;;11.67;8.73;;;;;;;;;;5074921;28;20469;-58
2022/03/10 01:49:27;;;;;;;11.53;8.37;;;;;;;;;;5075035;28;20432;-58
2022/03/10 01:51:54;;;;;;;12.57;9.17;;;;;;;;;;5074848;28;20434;-58
2022/03/10 01:54:20;;;;;;;10.97;9.10;;;;;;;;;;5074702;28;20920;-58
2022/03/10 01:56:46;;;;;;;11.37;9.50;;;;;;;;;;5074910;28;20525;-58
2022/03/10 01:59:12;;;;;;;10.87;9.00;;;;;;;;;;5074654;28;20499;-58
2022/03/10 02:01:40;;;;;;;11.93;8.97;;;;;;;;;;5074730;28;20433;-58
2022/03/10 02:04:06;;;;;;;11.00;9.07;;;;;;;;;;5074654;28;20936;-58
2022/03/10 02:06:32;;;;;;;10.07;8.50;;;;;;;;;;5074639;28;20484;-59
2022/03/10 02:11:43;;;;;;;10.80;9.03;;;;;;;;;;5074679;28;20418;-59
2022/03/10 02:19:40;;;;;;;10.63;8.80;;;;;;;;;;5074362;28;20563;-57
2022/03/10 02:22:09;;;;;;;12.57;9.20;;;;;;;;;;5074226;28;20940;-57
2022/03/10 02:24:36;;;;;;;11.63;9.13;;;;;;;;;;5073952;28;20249;-57
2022/03/10 02:27:11;;;;;;;10.73;8.90;;;;;;;;;;5074062;28;20481;-57
2022/03/10 02:29:37;;;;;;;10.90;9.20;;;;;;;;;;5074130;28;20815;-57
2022/03/10 02:32:04;;;;;;;12.23;9.33;;;;;;;;;;5074037;28;20982;-58
2022/03/10 02:34:30;;;;;;;10.50;9.37;;;;;;;;;;5071793;28;20433;-57
2022/03/10 02:36:56;;;;;;;11.67;9.10;;;;;;;;;;5074091;28;20434;-57
2022/03/10 02:39:23;;;;;;;11.40;9.87;;;;;;;;;;5073930;28;20711;-58
2022/03/10 02:41:49;;;;;;;15.20;9.70;;;;;;;;;;5072191;28;20665;-58
2022/03/10 02:44:15;;;;;;;12.40;9.80;;;;;;;;;;5073889;28;20481;-58
2022/03/10 02:46:41;;;;;;;12.80;10.00;;;;;;;;;;5073863;28;20511;-58
2022/03/10 02:49:07;;;;;;;11.27;10.00;;;;;;;;;;5073773;28;20430;-58
2022/03/10 02:51:33;;;;;;;11.17;9.83;;;;;;;;;;5073670;28;20619;-57
2022/03/10 02:53:59;;;;;;;12.13;9.80;;;;;;;;;;5073837;28;20244;-58
2022/03/10 02:56:26;;;;;;;10.80;9.20;;;;;;;;;;5073589;28;20650;-58
2022/03/10 02:58:52;;;;;;;11.10;9.90;;;;;;;;;;5073663;28;20303;-57
2022/03/10 03:01:18;;;;;;;10.70;9.20;;;;;;;;;;5073375;28;20496;-58
2022/03/10 03:03:44;;;;;;;14.10;10.20;;;;;;;;;;5073645;28;20207;-57
2022/03/10 03:06:10;;;;;;;11.10;9.87;;;;;;;;;;5073196;28;20230;-58
2022/03/10 03:08:36;;;;;;;11.77;9.40;;;;;;;;;;5073441;28;20434;-57
2022/03/10 03:11:02;;;;;;;13.07;9.93;;;;;;;;;;5073181;28;20430;-57
2022/03/10 03:13:30;;;;;;;12.40;9.07;;;;;;;;;;5073534;28;20200;-57
2022/03/10 03:15:58;;;;;;;12.10;9.87;;;;;;;;;;5073119;28;20925;-57
2022/03/10 03:18:24;;;;;;;11.77;9.43;;;;;;;;;;5073067;28;20456;-57
2022/03/10 03:20:50;;;;;;;13.13;10.03;;;;;;;;;;5073070;28;20932;-57
2022/03/10 03:23:17;;;;;;;12.17;9.87;;;;;;;;;;5072824;28;20235;-58
2022/03/10 03:25:43;;;;;;;12.33;10.03;;;;;;;;;;5073078;28;20226;-58
2022/03/10 03:28:09;;;;;;;13.00;9.90;;;;;;;;;;5072880;28;20438;-58
2022/03/10 03:30:36;;;;;;;12.73;10.70;;;;;;;;;;5072875;28;20200;-58
2022/03/10 03:33:02;;;;;;;11.73;10.17;;;;;;;;;;5072952;28;20204;-58
2022/03/10 03:35:28;;;;;;;14.60;10.53;;;;;;;;;;5072773;28;20460;-58
2022/03/10 03:37:54;;;;;;;13.37;10.27;;;;;;;;;;5072745;28;20219;-58
2022/03/10 03:40:20;;;;;;;12.27;10.43;;;;;;;;;;5072655;28;20441;-57
2022/03/10 03:42:46;;;;;;;11.40;9.67;;;;;;;;;;5072685;28;20950;-58
2022/03/10 03:45:12;;;;;;;13.17;10.13;;;;;;;;;;5071808;28;20521;-58
2022/03/10 03:47:40;;;;;;;15.33;11.60;;;;;;;;;;5072697;28;20434;-58
2022/03/10 03:50:06;;;;;;;12.93;10.30;;;;;;;;;;5072526;28;20446;-57
2022/03/10 03:52:32;;;;;;;12.67;10.43;;;;;;;;;;5072595;28;20790;-57
2022/03/10 03:54:58;;;;;;;13.90;10.83;;;;;;;;;;5072472;28;20434;-58
2022/03/10 03:57:24;;;;;;;13.07;9.83;;;;;;;;;;5072414;28;20222;-58
2022/03/10 03:59:50;;;;;;;13.47;10.37;;;;;;;;;;5072426;28;20684;-58
2022/03/10 04:02:16;;;;;;;13.10;10.30;;;;;;;;;;5072379;28;20199;-58
2022/03/10 04:04:43;;;;;;;12.03;10.13;;;;;;;;;;5072315;28;20446;-58
2022/03/10 04:07:09;;;;;;;13.50;10.20;;;;;;;;;;5072053;28;20235;-58
2022/03/10 04:09:35;;;;;;;11.87;9.93;;;;;;;;;;5072525;28;20426;-58
2022/03/10 04:12:02;;;;;;;13.53;10.87;;;;;;;;;;5072236;28;20434;-58
2022/03/10 04:14:28;;;;;;;11.87;9.90;;;;;;;;;;5072364;28;20401;-58
2022/03/10 04:16:54;;;;;;;14.33;10.07;;;;;;;;;;5072183;28;20958;-59
2022/03/10 04:19:20;;;;;;;13.97;10.70;;;;;;;;;;5072078;28;20212;-58
2022/03/10 04:21:47;;;;;;;12.23;10.33;;;;;;;;;;5072107;28;20438;-58
2022/03/10 04:24:13;;;;;;;13.17;10.30;;;;;;;;;;5071606;28;20488;-58
2022/03/10 04:26:40;;;;;;;11.93;10.00;;;;;;;;;;5071608;28;20478;-58
2022/03/10 04:29:07;;;;;;;14.33;10.60;;;;;;;;;;5071664;28;20249;-58
2022/03/10 04:31:33;;;;;;;14.30;9.87;;;;;;;;;;5071923;28;20430;-58
2022/03/10 04:33:59;;;;;;;12.37;10.23;;;;;;;;;;5071700;28;20508;-58
2022/03/10 04:36:28;;;;;;;12.27;10.63;;;;;;;;;;5071938;28;20276;-59
2022/03/10 04:38:55;;;;;;;16.13;10.50;;;;;;;;;;5071826;28;20206;-58
2022/03/10 04:41:21;;;;;;;12.50;10.17;;;;;;;;;;5071603;28;20946;-58
2022/03/10 04:43:47;;;;;;;15.97;10.70;;;;;;;;;;5071754;28;20429;-58
2022/03/10 04:46:13;;;;;;;15.63;10.33;;;;;;;;;;5071527;28;20886;-59
2022/03/10 04:48:39;;;;;;;12.07;9.43;;;;;;;;;;5071700;28;20283;-58
2022/03/10 04:51:06;;;;;;;12.10;9.77;;;;;;;;;;5071492;28;20434;-58
2022/03/10 04:53:31;;;;;;;12.57;9.80;;;;;;;;;;5071785;28;20429;-58
2022/03/10 04:55:59;;;;;;;11.83;9.73;;;;;;;;;;5072320;28;20529;-58
2022/03/10 04:58:25;;;;;;;12.43;9.27;;;;;;;;;;5075628;28;20203;-58
2022/03/10 05:00:51;;;;;;;12.03;10.10;;;;;;;;;;5075496;28;20441;-58
2022/03/10 05:03:17;;;;;;;13.83;10.20;;;;;;;;;;5075754;28;20650;-58
2022/03/10 05:05:43;;;;;;;13.27;10.27;;;;;;;;;;5075620;28;20259;-58
2022/03/10 05:08:09;;;;;;;13.37;11.37;;;;;;;;;;5075385;28;20248;-58
2022/03/10 05:10:35;;;;;;;12.13;9.53;;;;;;;;;;5075557;28;20677;-58
2022/03/10 05:13:03;;;;;;;13.87;10.20;;;;;;;;;;5075459;28;20210;-58
2022/03/10 05:15:33;;;;;;;13.77;11.33;;;;;;;;;;5075385;28;20446;-58
2022/03/10 05:18:00;;;;;;;12.43;10.80;;;;;;;;;;5075355;28;20498;-58
2022/03/10 05:20:26;;;;;;;16.07;10.13;;;;;;;;;;5075191;28;20529;-59
2022/03/10 05:22:53;;;;;;;11.10;9.70;;;;;;;;;;5075068;28;20481;-59
2022/03/10 05:25:19;;;;;;;11.23;9.37;;;;;;;;;;5074954;28;20487;-59
2022/03/10 05:27:46;;;;;;;11.40;10.00;;;;;;;;;;5075285;28;20842;-59
2022/03/10 05:30:14;;;;;;;16.03;10.40;;;;;;;;;;5075270;28;20972;-59
2022/03/10 05:32:40;;;;;;;12.37;9.77;;;;;;;;;;5075014;28;20552;-58
2022/03/10 05:35:07;;;;;;;14.40;10.60;;;;;;;;;;5075059;28;20939;-59
2022/03/10 05:37:35;;;;;;;13.40;9.50;;;;;;;;;;5074960;28;20444;-58
2022/03/10 05:40:01;;;;;;;12.43;9.27;;;;;;;;;;5074811;28;20521;-58
2022/03/10 05:42:27;;;;;;;12.90;9.37;;;;;;;;;;5074908;28;20520;-59
2022/03/10 05:44:53;;;;;;;13.17;9.77;;;;;;;;;;5074858;28;20235;-59
2022/03/10 05:47:21;;;;;;;12.20;9.90;;;;;;;;;;5074915;28;20224;-59
2022/03/10 05:49:47;;;;;;;13.73;9.80;;;;;;;;;;5074860;28;20210;-58
2022/03/10 05:52:13;;;;;;;12.67;9.40;;;;;;;;;;5074683;28;20516;-59
2022/03/10 05:54:39;;;;;;;12.43;10.00;;;;;;;;;;5074713;28;20506;-58
2022/03/10 05:57:05;;;;;;;12.70;9.23;;;;;;;;;;5074562;28;20563;-58
2022/03/10 05:59:31;;;;;;;14.93;10.10;;;;;;;;;;5074564;28;20253;-59
2022/03/10 06:01:57;;;;;;;15.07;9.67;;;;;;;;;;5074391;28;20294;-59
2022/03/10 06:04:24;;;;;;;12.00;9.67;;;;;;;;;;5074302;28;20229;-57
2022/03/10 06:06:50;;;;;;;12.60;9.63;;;;;;;;;;5074276;28;20224;-58
2022/03/10 06:09:16;;;;;;;16.63;9.57;;;;;;;;;;5073432;28;20429;-60
2022/03/10 06:11:43;;;;;;;10.77;8.80;;;;;;;;;;5074284;28;20211;-60
2022/03/10 06:14:11;;;;;;;13.20;10.00;;;;;;;;;;5074027;28;20684;-60
2022/03/10 06:16:37;;;;;;;12.43;8.63;;;;;;;;;;5073897;28;20429;-58
2022/03/10 06:19:03;;;;;;;11.70;9.57;;;;;;;;;;5073822;28;20434;-58
2022/03/10 06:21:30;;;;;;;13.30;8.67;;;;;;;;;;5073796;28;20694;-57
2022/03/10 06:23:56;;;;;;;12.47;9.17;;;;;;;;;;5073413;28;20473;-58
2022/03/10 06:26:22;;;;;;;11.33;8.97;;;;;;;;;;5073423;28;20473;-58
2022/03/10 06:28:48;;;;;;;13.67;9.87;;;;;;;;;;5072321;28;20492;-59
2022/03/10 06:31:14;;;;;;;11.60;9.37;;;;;;;;;;5073626;28;20266;-59
2022/03/10 06:33:40;;;;;;;13.07;9.27;;;;;;;;;;5073876;28;20730;-59
2022/03/10 06:36:06;;;;;;;13.90;9.20;;;;;;;;;;5073414;28;20315;-59
2022/03/10 06:38:36;;;;;;;17.47;9.20;;;;;;;;;;5073413;28;20199;-59
2022/03/10 06:41:02;;;;;;;13.30;9.57;;;;;;;;;;5073506;28;20442;-59
2022/03/10 06:43:28;;;;;;;12.83;8.77;;;;;;;;;;5073796;28;20792;-59
2022/03/10 06:45:54;;;;;;;11.97;8.77;;;;;;;;;;5073528;28;20985;-59
2022/03/10 06:48:20;;;;;;;11.10;8.97;;;;;;;;;;5073567;28;20257;-59
2022/03/10 06:50:46;;;;;;;13.80;9.00;;;;;;;;;;5073574;28;20227;-59
2022/03/10 06:53:13;;;;;;;12.97;8.83;;;;;;;;;;5073723;28;20457;-59
2022/03/10 06:55:40;;;;;;;11.53;8.47;;;;;;;;;;5073689;28;20438;-59
2022/03/10 06:58:06;;;;;;;12.10;8.63;;;;;;;;;;5073587;28;20430;-59
2022/03/10 07:00:32;;;;;;;12.87;8.57;;;;;;;;;;5073505;28;20909;-59
2022/03/10 07:02:58;;;;;;;9.50;8.27;;;;;;;;;;5073407;28;20199;-58
2022/03/10 07:05:24;;;;;;;12.43;8.70;;;;;;;;;;5073268;28;20434;-57
2022/03/10 07:07:50;;;;;;;14.53;8.97;;;;;;;;;;5073292;28;20501;-57
2022/03/10 07:10:16;;;;;;;11.43;9.00;;;;;;;;;;5073076;28;20471;-57
2022/03/10 07:12:44;;;;;;;11.67;9.07;;;;;;;;;;5073105;28;20205;-57
2022/03/10 07:15:11;;;;;;;10.57;8.10;;;;;;;;;;5073228;28;20223;-57
2022/03/10 07:17:37;;;;;;;10.20;8.10;;;;;;;;;;5073250;28;20437;-57
2022/03/10 07:20:03;;;;;;;10.33;8.17;;;;;;;;;;5073074;28;20475;-57
2022/03/10 07:22:29;;;;;;;11.63;8.30;;;;;;;;;;5073056;28;20484;-57
2022/03/10 07:24:55;;;;;;;15.70;8.70;;;;;;;;;;5072849;28;20480;-57
2022/03/10 07:27:21;;;;;;;17.80;9.30;;;;;;;;;;5072740;28;20469;-57
2022/03/10 07:29:48;;;;;;;14.63;8.87;;;;;;;;;;5072936;28;20662;-57
2022/03/10 07:32:14;;;;;;;11.03;8.10;;;;;;;;;;5072695;28;20215;-57
2022/03/10 07:34:40;;;;;;;13.43;8.83;;;;;;;;;;5072747;28;20429;-56
2022/03/10 07:37:06;;;;;;;11.60;9.40;;;;;;;;;;5072648;28;21198;-59
2022/03/10 07:39:32;;;;;;;12.93;8.20;;;;;;;;;;5072670;28;20204;-59
2022/03/10 07:42:00;;;;;;;9.63;7.17;;;;;;;;;;5072584;28;20448;-61
2022/03/10 07:44:26;;;;;;;9.43;7.63;;;;;;;;;;5072563;28;20598;-58
2022/03/10 07:46:54;;;;;;;8.83;6.97;;;;;;;;;;5072490;28;20474;-58
2022/03/10 07:49:20;;;;;;;8.90;7.30;;;;;;;;;;5072493;28;20517;-59
2022/03/10 07:51:46;;;;;;;9.20;7.23;;;;;;;;;;5072453;28;21011;-58
2022/03/10 07:54:12;;;;;;;10.47;6.47;;;;;;;;;;5072506;28;20434;-58
2022/03/10 07:56:38;;;;;;;10.17;7.87;;;;;;;;;;5072498;28;20432;-59
2022/03/10 07:59:04;;;;;;;9.73;7.43;;;;;;;;;;5063573;28;20199;-58
2022/03/10 08:01:31;;;;;;;9.87;7.57;;;;;;;;;;5071194;28;20203;-58
2022/03/10 08:03:58;;;;;;;9.90;7.13;;;;;;;;;;5071984;28;20434;-57
2022/03/10 08:06:26;;;;;;;7.77;6.93;;;;;;;;;;5071954;28;20466;-58
2022/03/10 08:08:52;;;;;;;10.40;7.13;;;;;;;;;;5072031;28;20480;-58
2022/03/10 08:11:18;;;;;;;10.50;6.97;;;;;;;;;;5071769;28;20207;-58
2022/03/10 08:13:44;;;;;;;7.23;6.50;;;;;;;;;;5072203;28;20559;-57
2022/03/10 08:16:10;;;;;;;8.10;6.50;;;;;;;;;;5071497;28;20210;-57
2022/03/10 08:18:36;;;;;;;8.70;6.47;;;;;;;;;;5071980;28;20567;-58
2022/03/10 08:21:04;;;;;;;7.57;6.30;;;;;;;;;;5071725;28;20673;-58
2022/03/10 08:23:30;;;;;;;7.97;6.93;;;;;;;;;;5071560;28;20945;-58
2022/03/10 08:25:56;;;;;;;8.30;6.53;;;;;;;;;;5071800;28;20227;-57
2022/03/10 08:28:23;;;;;;;7.40;6.70;;;;;;;;;;5071802;28;20277;-57
2022/03/10 08:30:49;;;;;;;7.90;6.30;;;;;;;;;;5071395;28;20275;-57
2022/03/10 08:33:15;;;;;;;9.83;6.57;;;;;;;;;;5071650;28;20195;-58
2022/03/10 08:35:41;;;;;;;7.47;6.43;;;;;;;;;;5071820;28;20241;-58
2022/03/10 08:38:09;;;;;;;6.90;6.20;;;;;;;;;;5071639;28;20676;-57
2022/03/10 08:40:35;;;;;;;8.23;6.53;;;;;;;;;;5071761;28;20200;-57
2022/03/10 08:43:01;;;;;;;9.33;6.67;;;;;;;;;;5071678;28;20241;-58
2022/03/10 08:45:27;;;;;;;8.87;6.83;;;;;;;;;;5071540;28;20196;-57
2022/03/10 08:47:54;;;;;;;7.50;6.40;;;;;;;;;;5071623;28;20229;-57
2022/03/10 08:50:21;;;;;;;6.77;6.07;;;;;;;;;;5071361;28;20699;-58
2022/03/10 08:52:47;;;;;;;10.20;6.17;;;;;;;;;;5071596;28;20295;-58
2022/03/10 08:55:14;;;;;;;9.13;6.80;;;;;;;;;;5071526;28;20222;-56
2022/03/10 08:57:43;;;;;;;8.77;6.13;;;;;;;;;;5071599;28;20298;-57
2022/03/10 09:00:11;;;;;;;8.27;6.30;;;;;;;;;;5071442;28;20207;-57
2022/03/10 09:02:37;;;;;;;7.27;6.57;;;;;;;;;;5071545;28;20191;-56
2022/03/10 09:05:04;;;;;;;6.73;6.00;;;;;;;;;;5071389;28;20278;-58
2022/03/10 09:07:30;;;;;;;6.50;5.90;;;;;;;;;;5071317;28;20619;-58
2022/03/10 09:09:56;;;;;;;7.33;5.80;;;;;;;;;;5071262;28;20659;-58
2022/03/10 09:12:23;;;;;;;6.60;5.90;;;;;;;;;;5071072;28;20298;-58
2022/03/10 09:14:49;;;;;;;6.60;5.50;;;;;;;;;;5071445;28;20192;-57
2022/03/10 09:17:15;;;;;;;7.97;5.53;;;;;;;;;;5071337;28;20207;-57
2022/03/10 09:19:41;;;;;;;6.33;5.53;;;;;;;;;;5071148;28;20747;-59
2022/03/10 09:22:07;;;;;;;7.53;5.47;;;;;;;;;;5071283;28;20199;-58
2022/03/10 09:24:33;;;;;;;8.40;5.87;;;;;;;;;;5068192;28;20289;-59
2022/03/10 09:26:59;;;;;;;7.00;6.30;;;;;;;;;;5071410;28;20315;-58
2022/03/10 09:29:27;;;;;;;12.70;5.93;;;;;;;;;;5071031;28;20200;-59
2022/03/10 09:31:53;;;;;;;7.97;6.10;;;;;;;;;;5071322;28;20253;-59
2022/03/10 09:34:19;;;;;;;9.87;5.63;;;;;;;;;;5071118;28;20203;-58
2022/03/10 09:36:45;;;;;;;5.90;5.30;;;;;;;;;;5071371;28;20191;-59
2022/03/10 09:39:11;;;;;;;6.97;6.13;;;;;;;;;;5071237;28;20565;-58
2022/03/10 09:41:38;;;;;;;6.33;5.57;;;;;;;;;;5071406;28;20692;-59
2022/03/10 09:44:09;;;;;;;6.63;5.80;;;;;;;;;;5073439;28;20199;-58
2022/03/10 09:46:37;;;;;;;6.30;5.63;;;;;;;;;;5072921;28;20227;-58
2022/03/10 09:49:03;;;;;;;5.67;5.10;;;;;;;;;;5074771;28;20200;-59
2022/03/10 09:51:31;;;;;;;8.33;5.20;;;;;;;;;;5074425;28;20218;-59
2022/03/10 09:53:57;;;;;;;6.30;5.70;;;;;;;;;;5072874;28;20286;-60
2022/03/10 09:56:23;;;;;;;6.73;5.87;;;;;;;;;;5074648;28;20667;-60
2022/03/10 09:58:49;;;;;;;8.00;5.37;;;;;;;;;;5074741;28;20674;-58
2022/03/10 10:01:15;;;;;;;6.97;5.70;;;;;;;;;;5074644;28;20569;-59
2022/03/10 10:03:43;;;;;;;6.90;5.57;;;;;;;;;;5074628;28;20195;-58
2022/03/10 10:06:09;;;;;;;6.40;5.73;;;;;;;;;;5074421;28;20227;-59
2022/03/10 10:08:36;;;;;;;7.20;5.60;;;;;;;;;;5074564;28;20203;-60
2022/03/10 10:11:02;;;;;;;8.43;5.60;;;;;;;;;;5074548;28;20200;-59
2022/03/10 10:13:29;;;;;;;7.67;5.40;;;;;;;;;;5074525;28;20199;-60
2022/03/10 10:15:57;;;;;;;8.57;5.67;;;;;;;;;;5074474;28;20197;-59
2022/03/10 10:18:23;;;;;;;6.73;5.50;;;;;;;;;;5074186;28;20199;-60
2022/03/10 10:20:51;;;;;;;7.47;5.10;;;;;;;;;;5074320;28;20200;-59
2022/03/10 10:23:24;;;;;;;7.57;4.80;;;;;;;;;;5073868;28;20238;-60
2022/03/10 10:25:51;;;;;;;5.77;5.17;;;;;;;;;;5074163;28;20298;-59
2022/03/10 10:28:23;;;;;;;7.43;5.23;;;;;;;;;;5074078;28;20203;-59
2022/03/10 10:30:53;;;;;;;6.20;4.83;;;;;;;;;;5074093;28;20211;-58
2022/03/10 10:33:19;;;;;;;7.03;5.00;;;;;;;;;;5073832;28;20207;-60
2022/03/10 10:35:45;;;;;;;5.70;5.00;;;;;;;;;;5072775;28;20199;-59
2022/03/10 10:38:27;;;;;;;5.80;4.87;;;;;;;;;;5073965;28;20229;-59
2022/03/10 10:41:14;;;;;;;8.83;5.20;;;;;;;;;;5074064;28;20210;-59
2022/03/10 10:43:40;;;;;;;6.73;4.77;;;;;;;;;;5073952;28;20191;-58
2022/03/10 10:46:06;;;;;;;5.43;4.93;;;;;;;;;;5073746;28;20253;-58
2022/03/10 10:48:45;;;;;;;5.50;5.00;;;;;;;;;;5073729;28;20262;-61
2022/03/10 10:51:11;;;;;;;5.57;4.90;;;;;;;;;;5073626;28;20275;-60
2022/03/10 10:53:39;;;;;;;5.83;4.70;;;;;;;;;;5073214;28;20260;-60
2022/03/10 10:56:06;;;;;;;5.57;4.80;;;;;;;;;;5073474;28;20214;-60
2022/03/10 10:58:32;;;;;;;6.23;5.10;;;;;;;;;;5073452;28;20197;-60
2022/03/10 11:00:58;;;;;;;7.40;5.17;;;;;;;;;;5071602;28;20206;-61
2022/03/10 11:03:25;;;;;;;6.53;5.20;;;;;;;;;;5073048;28;20676;-61
2022/03/10 11:05:52;;;;;;;6.13;5.53;;;;;;;;;;5072922;28;20195;-61
2022/03/10 11:08:18;;;;;;;8.43;5.03;;;;;;;;;;5073013;28;20221;-60
2022/03/10 11:10:49;;;;;;;5.60;5.03;;;;;;;;;;5073068;28;20256;-60
2022/03/10 11:13:15;;;;;;;7.63;5.73;;;;;;;;;;5073306;28;20199;-61
2022/03/10 11:15:42;;;;;;;6.20;5.60;;;;;;;;;;5072820;28;20199;-61
2022/03/10 11:18:09;;;;;;;7.30;5.73;;;;;;;;;;5072812;28;20196;-61
2022/03/10 11:20:35;;;;;;;7.77;6.03;;;;;;;;;;5072654;28;20293;-60
2022/03/10 11:23:05;;;;;;;6.77;6.00;;;;;;;;;;5072521;28;20297;-60
2022/03/10 11:25:38;;;;;;;8.03;6.60;;;;;;;;;;5072567;28;20209;-61
2022/03/10 11:28:10;;;;;;;6.20;5.60;;;;;;;;;;5072537;28;20223;-61
2022/03/10 11:30:36;;;;;;;9.43;5.67;;;;;;;;;;5072444;28;20198;-60
2022/03/10 11:33:04;;;;;;;6.13;5.50;;;;;;;;;;5072214;28;20214;-60
2022/03/10 11:35:31;;;;;;;6.57;5.77;;;;;;;;;;5072548;28;20226;-60
2022/03/10 11:37:58;;;;;;;6.33;5.73;;;;;;;;;;5072560;28;20188;-60
2022/03/10 11:40:43;;;;;;;6.77;5.47;;;;;;;;;;5072581;28;20608;-61
2022/03/10 11:43:11;;;;;;;6.87;5.60;;;;;;;;;;5073018;28;20206;-61
2022/03/10 11:45:37;;;;;;;5.53;5.03;;;;;;;;;;5072563;28;20206;-61
2022/03/10 11:48:21;;;;;;;6.53;5.93;;;;;;;;;;5072461;28;20220;-60
2022/03/10 11:50:47;;;;;;;5.73;5.13;;;;;;;;;;5072394;28;20199;-60
2022/03/10 11:53:13;;;;;;;6.50;5.80;;;;;;;;;;5072691;28;20195;-61
2022/03/10 11:55:40;;;;;;;8.47;5.23;;;;;;;;;;5072436;28;20278;-60
2022/03/10 11:58:06;;;;;;;6.53;5.30;;;;;;;;;;5072516;28;20197;-61
2022/03/10 12:00:53;;;;;;;7.83;5.53;;;;;;;;;;5072195;28;20562;-61
2022/03/10 12:03:19;;;;;;;9.07;5.33;;;;;;;;;;5072199;28;20257;-60
2022/03/10 12:05:55;;;;;;;6.10;5.20;;;;;;;;;;5071746;28;20202;-61
2022/03/10 12:08:22;;;;;;;9.30;5.60;;;;;;;;;;5072166;28;20587;-60
2022/03/10 12:10:48;;;;;;;10.57;5.10;;;;;;;;;;5072377;28;20582;-61
2022/03/10 12:13:22;;;;;;;6.00;5.40;;;;;;;;;;5072312;28;20285;-61
2022/03/10 12:15:48;;;;;;;7.27;5.67;;;;;;;;;;5072373;28;20202;-63
2022/03/10 12:18:20;;;;;;;7.37;5.70;;;;;;;;;;5072208;28;20213;-61
2022/03/10 12:20:46;;;;;;;10.33;5.40;;;;;;;;;;5071989;28;20213;-61
2022/03/10 12:23:14;;;;;;;7.33;5.50;;;;;;;;;;5071796;28;20245;-62
2022/03/10 12:25:41;;;;;;;5.87;5.27;;;;;;;;;;5071999;28;20554;-61
2022/03/10 12:28:09;;;;;;;13.37;5.67;;;;;;;;;;5071704;28;20340;-61
2022/03/10 12:30:44;;;;;;;6.10;5.50;;;;;;;;;;5071728;28;20565;-62
2022/03/10 12:33:10;;;;;;;6.30;5.50;;;;;;;;;;5071887;28;20205;-61
2022/03/10 12:35:40;;;;;;;11.67;5.23;;;;;;;;;;5071669;28;20296;-61
2022/03/10 12:38:06;;;;;;;8.10;5.53;;;;;;;;;;5070166;28;20560;-61
2022/03/10 12:40:33;;;;;;;5.83;5.23;;;;;;;;;;5071675;28;20299;-61
2022/03/10 12:43:00;;;;;;;6.73;5.60;;;;;;;;;;5071740;28;20684;-61
2022/03/10 12:45:26;;;;;;;6.43;5.53;;;;;;;;;;5071822;28;20291;-61
2022/03/10 12:47:55;;;;;;;6.77;5.10;;;;;;;;;;5071784;28;20311;-60
2022/03/10 12:50:22;;;;;;;6.77;5.63;;;;;;;;;;5071565;28;20273;-60
2022/03/10 12:52:49;;;;;;;5.90;5.30;;;;;;;;;;5071803;28;20208;-62
2022/03/10 12:55:24;;;;;;;5.70;5.13;;;;;;;;;;5071898;28;20297;-60
2022/03/10 12:57:50;;;;;;;10.63;5.33;;;;;;;;;;5071653;28;20198;-60
2022/03/10 13:00:18;;;;;;;7.70;5.73;;;;;;;;;;5071832;28;20713;-60
2022/03/10 13:02:44;;;;;;;5.50;5.00;;;;;;;;;;5071880;28;20235;-61
2022/03/10 13:05:13;;;;;;;6.27;5.67;;;;;;;;;;5071620;28;20686;-60
2022/03/10 13:07:39;;;;;;;6.37;5.13;;;;;;;;;;5071710;28;20238;-62
2022/03/10 13:10:09;;;;;;;7.47;5.70;;;;;;;;;;5071757;28;20569;-60
2022/03/10 13:12:37;;;;;;;7.10;5.70;;;;;;;;;;5071605;28;20207;-61
2022/03/10 13:15:04;;;;;;;7.23;6.00;;;;;;;;;;5071740;28;20615;-60
2022/03/10 13:17:31;;;;;;;7.30;5.90;;;;;;;;;;5072856;28;20748;-59
2022/03/10 13:19:57;;;;;;;7.13;6.10;;;;;;;;;;5075058;28;20219;-61
2022/03/10 13:22:23;;;;;;;6.70;6.00;;;;;;;;;;5075027;28;20230;-62
2022/03/10 13:24:52;;;;;;;13.07;6.60;;;;;;;;;;5075013;28;20768;-61
2022/03/10 13:27:20;;;;;;;6.60;5.83;;;;;;;;;;5075115;28;20227;-60
2022/03/10 13:29:50;;;;;;;9.40;6.50;;;;;;;;;;5075273;28;20211;-61
2022/03/10 13:32:16;;;;;;;9.43;6.10;;;;;;;;;;5074963;28;20669;-62
2022/03/10 13:34:42;;;;;;;7.33;5.87;;;;;;;;;;5074951;28;20203;-61
2022/03/10 13:37:09;;;;;;;6.87;6.10;;;;;;;;;;5075080;28;20251;-61
2022/03/10 13:39:38;;;;;;;9.30;6.30;;;;;;;;;;5074757;28;20249;-61
2022/03/10 13:42:04;;;;;;;8.17;6.60;;;;;;;;;;5074680;28;20207;-61
2022/03/10 13:44:32;;;;;;;7.50;5.90;;;;;;;;;;5074722;28;20278;-61
2022/03/10 13:47:04;;;;;;;7.93;6.57;;;;;;;;;;5074559;28;20319;-61
2022/03/10 13:49:30;;;;;;;6.93;6.00;;;;;;;;;;5074717;28;20208;-61
2022/03/10 13:51:56;;;;;;;8.90;6.27;;;;;;;;;;5074890;28;20318;-61
2022/03/10 13:54:27;;;;;;;7.93;6.87;;;;;;;;;;5074291;28;20196;-61
2022/03/10 13:56:54;;;;;;;8.37;7.33;;;;;;;;;;5071272;28;20191;-61
2022/03/10 13:59:20;;;;;;;9.60;6.57;;;;;;;;;;5073205;28;20204;-60
2022/03/10 14:01:48;;;;;;;8.17;6.87;;;;;;;;;;5073999;28;20655;-60
2022/03/10 14:04:14;;;;;;;8.27;6.43;;;;;;;;;;5073718;28;20200;-61
2022/03/10 14:06:41;;;;;;;7.87;6.67;;;;;;;;;;5074307;28;20286;-60
2022/03/10 14:09:15;;;;;;;8.03;6.93;;;;;;;;;;5073692;28;20749;-61
2022/03/10 14:11:41;;;;;;;7.87;6.57;;;;;;;;;;5073939;28;20290;-62
2022/03/10 14:14:07;;;;;;;12.57;7.23;;;;;;;;;;5073799;28;20279;-61
2022/03/10 14:16:33;;;;;;;8.17;6.20;;;;;;;;;;5073432;28;20654;-60
2022/03/10 14:19:03;;;;;;;9.27;6.57;;;;;;;;;;5073519;28;20195;-61
2022/03/10 14:21:29;;;;;;;7.43;6.60;;;;;;;;;;5073660;28;20210;-61
2022/03/10 14:23:56;;;;;;;9.17;6.40;;;;;;;;;;5073439;28;20745;-60
2022/03/10 14:26:22;;;;;;;7.83;6.43;;;;;;;;;;5073186;28;20287;-60
2022/03/10 14:28:49;;;;;;;14.03;6.53;;;;;;;;;;5072442;28;20208;-60
2022/03/10 14:31:16;;;;;;;11.87;6.83;;;;;;;;;;5073679;28;20199;-60
2022/03/10 14:33:42;;;;;;;7.00;6.10;;;;;;;;;;5068238;28;20199;-60
2022/03/10 14:36:11;;;;;;;7.10;6.40;;;;;;;;;;5071599;28;20191;-60
2022/03/10 14:38:38;;;;;;;11.10;6.53;;;;;;;;;;5073500;28;20333;-59
2022/03/10 14:41:04;;;;;;;8.80;6.80;;;;;;;;;;5073360;28;20269;-61